Skip Navigation Links
NOAA logo - Click to go to the NOAA homepage
NOAA's National Weather Service
Alaska Aviation Weather Unit
  NWS logo - Click to go to the NWS homepage
Left Navbar Graphic     17 AKDT = 01 GMT

   
NOAA is celebrating 200 years of science, service, and stewardship. Visit the NOAA 200th celebration Web site to learn more.
USA.gov is the U.S. Government's official Web portal to all Federal, state and local government Web resources and services.
Facebook
NWS on Facebook

Important Change Regarding the AAWU Web Presence

 

Over the last several months, the AAWU has been working to navigate its webpages to a nationally supported server. Security, as well as other needs, have necessitated the change.  We have been given an extension for the site changeover while we diligently work at addressing feedback received. As of July 14, 2017, aawu.arh.noaa.gov will be discontinued. The new AAWU web address is weather.gov/aawu. It is now live and will run in-parallel with the old site until it is discontinued on July 14, 2017. Please continue to send any feedback or questions regarding the new webpages to nws.ar.aawu.webauthors@noaa.gov.  Thank you for your patience during this time of transition.
AAWU Home :: Display TAF Add Bookmark
METAR PAKV 171953Z AUTO 00000KT 10SM OVC065 M01/M03 A2951 RMK AO2 SLP997
     T10061028 TSNO=

METAR PAKV 172053Z AUTO 22003KT 10SM BKN030 OVC037 00/M02 A2951 RMK AO2
     SLP996 T00001017 58002 TSNO=

METAR PAKV 172153Z AUTO 25003KT 10SM BKN035 OVC046 01/M01 A2951 RMK AO2
     SLP995 T00111011 TSNO=

METAR PAKV 172253Z AUTO 00000KT 10SM BKN037 OVC060 02/M02 A2950 RMK AO2
     SLP992 T00171017 TSNO=

METAR PAKV 172353Z AUTO 00000KT 10SM OVC037 02/M01 A2949 RMK AO2 SLP991
     T00171011 10017 21022 58005 TSNO=

METAR PAKV 180053Z AUTO 00000KT 10SM FEW034 SCT043 OVC065 02/M01
 A2949 RMK AO2 UPB16E29 SLP989 P0000 T00171011 TSNO=

PAKV 180112Z AUTO 03004KT 6SM -SN FEW012 BKN029 OVC050 02/M01
     A2949 RMK AO2 SNB10 P0000 T00221011 TSNO=

SPECI PAKV 180118Z AUTO 05004KT 1 3/4SM -SN FEW014 BKN027 OVC038 02/M01
     A2949 RMK AO2 SNB10 P0000 T00171011 TSNO=

SPECI PAKV 180130Z AUTO 00000KT 3SM -SN BR SCT027 BKN049 OVC060 01/M01
     A2948 RMK AO2 SNB10 P0000 T00111011 TSNO=


NOAA's National Weather Service
Alaska Aviation Weather Unit
6930 Sand Lake Road
Anchorage, AK 99502-1845
Disclaimer
Credits
Glossary
Privacy Policy
About Us
Career Opportunities
Contact AAWU Internet Services Site last modified: April, 17th 2012